Time;durP1;ratioP1;P1;durP2;ratioP2;P2;SDS_P1;SDS_P2;PMS_P1;PMS_P2;Temp;Humidity;BMP_temperature;BMP_pressure;BME280_temperature;BME280_humidity;BME280_pressure;Samples;Min_cycle;Max_cycle;Signal;HPM_P1;HPM_P2
2021/01/10 00:00:56;;;;;;;164.20;98.80;;;102.70;2124.80;;;;;;5138166;27;20019;-74
2021/01/10 00:03:22;;;;;;;174.18;102.63;;;102.70;2124.80;;;;;;5119565;27;20027;-75
2021/01/10 00:05:48;;;;;;;186.75;109.55;;;102.80;2099.20;;;;;;5138271;27;20420;-75
2021/01/10 00:08:13;;;;;;;188.65;107.88;;;102.70;2099.20;;;;;;5137635;27;20058;-76
2021/01/10 00:10:39;;;;;;;180.13;110.40;;;102.70;2124.80;;;;;;5137724;27;20106;-75
2021/01/10 00:13:05;;;;;;;202.57;116.40;;;102.70;2124.80;;;;;;5119414;27;20031;-75
2021/01/10 00:15:32;;;;;;;210.20;121.03;;;102.70;2124.80;;;;;;5137503;27;20499;-75
2021/01/10 00:17:57;;;;;;;194.60;117.38;;;102.70;2124.80;;;;;;5137354;27;20110;-74
2021/01/10 00:20:23;;;;;;;200.23;118.95;;;102.70;2124.80;;;;;;5137718;27;20073;-77
2021/01/10 00:22:56;;;;;;;200.20;118.28;;;102.70;2124.80;;;;;;5137391;27;20475;-76
2021/01/10 00:25:23;;;;;;;152.43;94.90;;;102.70;2124.80;;;;;;5137571;27;20023;-75
2021/01/10 00:27:49;;;;;;;165.27;97.88;;;102.70;2124.80;;;;;;5137473;27;20030;-75
2021/01/10 00:30:18;;;;;;;156.07;93.22;;;102.70;2124.80;;;;;;5136057;27;20043;-75
2021/01/10 00:32:54;;;;;;;154.07;94.20;;;102.70;2124.80;;;;;;5135905;28;20039;-75
2021/01/10 00:35:22;;;;;;;156.57;94.22;;;102.70;2124.80;;;;;;5135895;28;20030;-75
2021/01/10 00:37:53;;;;;;;160.05;99.07;;;102.70;2124.80;;;;;;5135818;28;20026;-76
2021/01/10 00:40:20;;;;;;;146.52;88.47;;;102.80;2124.80;;;;;;5135996;28;20019;-76
2021/01/10 00:42:46;;;;;;;150.57;93.13;;;102.80;2124.80;;;;;;5114870;28;20022;-75
2021/01/10 00:45:13;;;;;;;133.98;87.95;;;102.80;2124.80;;;;;;5130988;28;20034;-75
2021/01/10 00:47:40;;;;;;;127.05;84.38;;;102.80;2124.80;;;;;;5135758;28;20089;-75
2021/01/10 00:50:07;;;;;;;151.07;93.35;;;102.80;2124.80;;;;;;5135527;28;20038;-75
2021/01/10 00:52:33;;;;;;;166.60;102.68;;;102.80;2124.80;;;;;;5135583;28;20479;-82
2021/01/10 00:54:59;;;;;;;162.38;101.43;;;102.80;2124.80;;;;;;5135822;28;20041;-75
2021/01/10 00:57:24;;;;;;;157.50;97.65;;;102.70;2124.80;;;;;;5135670;28;20034;-75
2021/01/10 00:59:50;;;;;;;134.13;84.22;;;102.70;2124.80;;;;;;5135646;28;20019;-75
2021/01/10 01:02:16;;;;;;;127.40;78.97;;;102.70;2124.80;;;;;;5135511;28;20088;-75
2021/01/10 01:04:42;;;;;;;110.68;69.30;;;102.60;2099.20;;;;;;5135405;28;20019;-75
2021/01/10 01:07:09;;;;;;;89.68;57.92;;;102.60;2124.80;;;;;;5117180;28;20379;-75
2021/01/10 01:09:35;;;;;;;122.53;81.68;;;102.60;2124.80;;;;;;5135509;28;20094;-76
2021/01/10 01:12:03;;;;;;;160.48;102.68;;;102.70;2124.80;;;;;;5135416;28;20532;-76
2021/01/10 01:14:29;;;;;;;134.90;85.85;;;102.70;2124.80;;;;;;5135257;28;20091;-74
2021/01/10 01:16:55;;;;;;;149.38;89.82;;;102.70;2124.80;;;;;;5135276;28;20054;-75
2021/01/10 01:19:22;;;;;;;142.68;87.70;;;102.70;2124.80;;;;;;5135341;28;20105;-75
2021/01/10 01:21:54;;;;;;;144.25;90.18;;;102.70;2124.80;;;;;;5135323;28;20023;-75
2021/01/10 01:24:22;;;;;;;126.43;80.03;;;102.70;2124.80;;;;;;5135230;28;20375;-75
2021/01/10 01:26:48;;;;;;;117.97;75.60;;;102.80;2124.80;;;;;;5135162;28;20459;-75
2021/01/10 01:29:15;;;;;;;117.63;73.45;;;102.80;2124.80;;;;;;5080726;27;1543464;-75
2021/01/10 01:31:41;;;;;;;112.57;71.78;;;102.80;2124.80;;;;;;5136280;27;20039;-75
2021/01/10 01:34:06;;;;;;;98.47;62.60;;;102.80;2124.80;;;;;;5136068;27;20042;-76
2021/01/10 01:36:32;;;;;;;108.10;66.45;;;102.80;2099.20;;;;;;5117805;27;20019;-76
2021/01/10 01:39:00;;;;;;;110.35;72.32;;;102.80;2099.20;;;;;;5136058;27;20405;-82
2021/01/10 01:41:27;;;;;;;120.85;77.72;;;102.80;2099.20;;;;;;5136199;27;20015;-76
2021/01/10 01:43:53;;;;;;;109.20;73.07;;;102.70;2099.20;;;;;;5135822;27;20386;-74
2021/01/10 01:46:30;;;;;;;100.93;63.28;;;102.80;2099.20;;;;;;5135703;27;20015;-76
2021/01/10 01:48:57;;;;;;;91.20;60.45;;;102.80;2099.20;;;;;;5135858;27;20110;-75
2021/01/10 01:51:25;;;;;;;92.47;59.80;;;102.80;2099.20;;;;;;5135735;27;20094;-76
2021/01/10 01:53:51;;;;;;;76.50;48.25;;;102.80;2099.20;;;;;;5134739;27;20047;-77
2021/01/10 01:56:17;;;;;;;79.68;53.00;;;102.80;2099.20;;;;;;5135611;27;20015;-76
2021/01/10 01:59:10;;;;;;;81.28;51.97;;;102.80;2099.20;;;;;;5135419;27;20041;-75
2021/01/10 02:01:38;;;;;;;85.78;55.42;;;102.80;2099.20;;;;;;5113908;27;20054;-74
2021/01/10 02:04:30;;;;;;;83.80;52.72;;;102.80;2099.20;;;;;;5135651;27;20034;-74
2021/01/10 02:07:21;;;;;;;92.35;57.80;;;102.70;2099.20;;;;;;5131929;27;20487;-76
2021/01/10 02:09:54;;;;;;;75.20;49.42;;;102.70;2099.20;;;;;;5135654;27;20538;-75
2021/01/10 02:12:21;;;;;;;77.65;51.45;;;102.70;2099.20;;;;;;5135395;27;20031;-75
2021/01/10 02:14:54;;;;;;;63.10;42.17;;;102.70;2099.20;;;;;;5135197;27;20114;-77
2021/01/10 02:17:20;;;;;;;62.43;42.53;;;102.70;2099.20;;;;;;5135253;27;20475;-75
2021/01/10 02:20:02;;;;;;;58.97;38.08;;;102.70;2099.20;;;;;;5134981;27;20027;-77
2021/01/10 02:22:32;;;;;;;55.15;38.40;;;102.70;2099.20;;;;;;5135050;27;20030;-77
2021/01/10 02:24:59;;;;;;;60.53;45.25;;;102.70;2099.20;;;;;;5135196;27;20023;-76
2021/01/10 02:27:24;;;;;;;57.58;39.95;;;102.70;2099.20;;;;;;5135034;27;20537;-74
2021/01/10 02:29:51;;;;;;;57.08;38.95;;;102.70;2099.20;;;;;;5134591;27;20070;-76
2021/01/10 02:32:19;;;;;;;54.35;35.42;;;102.70;2099.20;;;;;;5135104;27;20047;-75
2021/01/10 02:34:46;;;;;;;56.03;36.75;;;102.70;2099.20;;;;;;5134886;27;20387;-74
2021/01/10 02:37:29;;;;;;;61.72;38.45;;;102.70;2099.20;;;;;;5134868;27;20479;-76
2021/01/10 02:40:19;;;;;;;55.33;37.53;;;102.70;2099.20;;;;;;5134776;27;20042;-75
2021/01/10 02:43:01;;;;;;;51.35;35.90;;;102.70;2099.20;;;;;;5134517;27;20486;-75
2021/01/10 02:45:28;;;;;;;58.40;38.17;;;102.70;2099.20;;;;;;5134933;27;20015;-75
2021/01/10 02:47:53;;;;;;;97.57;49.25;;;102.70;2099.20;;;;;;5135085;27;20027;-76
2021/01/10 02:50:19;;;;;;;77.32;46.28;;;102.60;2099.20;;;;;;5134498;27;20075;-75
2021/01/10 02:52:47;;;;;;;70.03;47.03;;;102.60;2099.20;;;;;;5134718;27;20027;-75
2021/01/10 02:55:14;;;;;;;58.30;37.47;;;102.60;2124.80;;;;;;5134452;27;20031;-75
2021/01/10 02:57:44;;;;;;;61.00;39.75;;;102.60;2124.80;;;;;;5134443;27;20046;-74
2021/01/10 03:00:11;;;;;;;55.20;37.35;;;102.60;2099.20;;;;;;5134522;27;20019;-75
2021/01/10 03:02:38;;;;;;;48.03;34.65;;;102.60;2099.20;;;;;;5134474;27;20019;-75
2021/01/10 03:05:05;;;;;;;50.97;33.55;;;102.60;2099.20;;;;;;5134145;27;20023;-74
2021/01/10 03:07:35;;;;;;;49.67;35.03;;;102.60;2099.20;;;;;;5134502;27;20051;-74
2021/01/10 03:10:02;;;;;;;47.53;32.90;;;102.60;2124.80;;;;;;5134181;27;20102;-75
2021/01/10 03:12:29;;;;;;;55.85;38.03;;;102.60;2099.20;;;;;;5134685;27;20051;-74
2021/01/10 03:14:57;;;;;;;57.17;38.92;;;102.60;2124.80;;;;;;5134356;27;20027;-75
2021/01/10 03:17:28;;;;;;;52.78;36.58;;;102.60;2124.80;;;;;;5134175;28;20019;-75
2021/01/10 03:19:54;;;;;;;54.88;39.03;;;102.60;2124.80;;;;;;5134211;28;20028;-75
2021/01/10 03:22:19;;;;;;;60.17;42.47;;;102.60;2124.80;;;;;;5134451;28;20016;-76
2021/01/10 03:24:45;;;;;;;57.58;40.72;;;102.70;2124.80;;;;;;5133935;28;20027;-84
2021/01/10 03:27:11;;;;;;;60.72;40.92;;;102.60;2124.80;;;;;;5134528;28;20023;-76
2021/01/10 03:29:37;;;;;;;69.63;46.72;;;102.70;2124.80;;;;;;5133932;27;20190;-77
2021/01/10 03:32:03;;;;;;;67.32;43.28;;;102.70;2124.80;;;;;;5134477;28;20031;-76
2021/01/10 03:34:28;;;;;;;68.95;44.00;;;102.70;2099.20;;;;;;5134160;28;20034;-82
2021/01/10 03:36:54;;;;;;;66.97;44.50;;;102.70;2099.20;;;;;;5134167;28;20015;-75
2021/01/10 03:39:20;;;;;;;68.55;45.22;;;102.70;2099.20;;;;;;5134004;28;20094;-76
2021/01/10 03:41:45;;;;;;;68.60;47.58;;;102.70;2099.20;;;;;;5113629;28;20045;-76
2021/01/10 03:44:11;;;;;;;83.65;54.65;;;102.70;2124.80;;;;;;5129366;28;20443;-76
2021/01/10 03:46:37;;;;;;;77.68;52.63;;;102.70;2099.20;;;;;;5134119;28;20019;-81
2021/01/10 03:49:03;;;;;;;72.35;48.28;;;102.70;2099.20;;;;;;5133921;28;20019;-80
2021/01/10 03:51:29;;;;;;;70.95;49.65;;;102.60;2099.20;;;;;;5134115;28;20094;-76
2021/01/10 03:53:55;;;;;;;74.32;47.30;;;102.60;2099.20;;;;;;5133860;28;20080;-76
2021/01/10 03:56:21;;;;;;;64.68;44.38;;;102.50;2099.20;;;;;;5133983;28;20019;-75
2021/01/10 03:58:46;;;;;;;69.68;48.22;;;102.40;2099.20;;;;;;5133960;28;20437;-76
2021/01/10 04:01:12;;;;;;;74.13;48.80;;;102.40;2099.20;;;;;;5133992;28;20028;-85
2021/01/10 04:03:38;;;;;;;78.82;52.92;;;102.40;2124.80;;;;;;5133944;28;20049;-75
2021/01/10 04:06:03;;;;;;;64.30;44.08;;;102.40;2124.80;;;;;;5133657;28;20023;-76
2021/01/10 04:08:29;;;;;;;57.78;38.63;;;102.50;2124.80;;;;;;5133900;28;20079;-75
2021/01/10 04:10:55;;;;;;;62.47;43.35;;;102.50;2124.80;;;;;;5133678;28;20028;-75
2021/01/10 04:13:21;;;;;;;70.75;45.88;;;102.50;2124.80;;;;;;5133797;28;20070;-75
2021/01/10 04:15:46;;;;;;;62.17;42.22;;;102.50;2124.80;;;;;;5133993;28;20029;-75
2021/01/10 04:18:12;;;;;;;63.45;40.10;;;102.50;2124.80;;;;;;5136647;27;20137;-76
2021/01/10 04:20:38;;;;;;;60.15;39.05;;;102.50;2124.80;;;;;;5137174;27;20067;-76
2021/01/10 04:23:03;;;;;;;65.78;42.28;;;102.50;2099.20;;;;;;5137623;27;20027;-76
2021/01/10 04:25:29;;;;;;;63.10;40.72;;;102.50;2099.20;;;;;;5137597;27;20022;-77
2021/01/10 04:27:55;;;;;;;57.22;40.90;;;102.50;2099.20;;;;;;5137362;27;20432;-76
2021/01/10 04:30:20;;;;;;;59.97;40.67;;;102.50;2099.20;;;;;;5137115;27;20126;-76
2021/01/10 04:32:46;;;;;;;56.30;38.50;;;102.50;2099.20;;;;;;5137169;27;20372;-75
2021/01/10 04:35:12;;;;;;;54.50;36.80;;;102.50;2099.20;;;;;;5137057;27;20028;-75
2021/01/10 04:37:38;;;;;;;51.17;34.13;;;102.50;2099.20;;;;;;5118644;27;20109;-76
2021/01/10 04:40:06;;;;;;;52.00;34.80;;;102.60;2099.20;;;;;;5118667;27;20516;-75
2021/01/10 04:42:34;;;;;;;56.60;35.65;;;102.50;2099.20;;;;;;5136922;27;20027;-76
2021/01/10 04:44:59;;;;;;;54.92;37.67;;;102.60;2099.20;;;;;;5118751;27;20024;-77
2021/01/10 04:47:26;;;;;;;53.65;38.13;;;102.60;2099.20;;;;;;5116475;28;20028;-77
2021/01/10 04:49:52;;;;;;;65.13;44.47;;;102.60;2099.20;;;;;;5116243;28;20069;-76
2021/01/10 04:52:19;;;;;;;66.80;44.50;;;102.60;2124.80;;;;;;5116355;28;20023;-76
2021/01/10 04:54:46;;;;;;;70.20;48.63;;;102.60;2099.20;;;;;;5116255;28;20407;-76
2021/01/10 04:57:12;;;;;;;66.10;43.35;;;102.60;2099.20;;;;;;5116076;28;20095;-77
2021/01/10 04:59:42;;;;;;;62.78;41.50;;;102.50;2099.20;;;;;;5116254;28;20070;-77
2021/01/10 05:02:09;;;;;;;66.20;43.97;;;102.60;2124.80;;;;;;5116123;28;20020;-76
2021/01/10 05:04:36;;;;;;;75.70;48.67;;;102.60;2099.20;;;;;;5115821;28;20027;-76
2021/01/10 05:07:03;;;;;;;173.63;91.55;;;102.60;2099.20;;;;;;5116144;28;20023;-76
2021/01/10 05:09:30;;;;;;;112.53;67.90;;;102.60;2099.20;;;;;;5116226;28;20023;-75
2021/01/10 05:11:56;;;;;;;89.63;57.05;;;102.60;2099.20;;;;;;5115871;28;20031;-75
2021/01/10 05:14:21;;;;;;;97.13;60.95;;;102.60;2099.20;;;;;;5115961;28;20035;-75
2021/01/10 05:16:47;;;;;;;88.00;57.60;;;102.60;2099.20;;;;;;5115893;28;20487;-75
2021/01/10 05:19:23;;;;;;;53.33;36.25;;;102.60;2099.20;;;;;;5115832;28;20023;-75
2021/01/10 05:21:48;;;;;;;70.22;46.33;;;102.60;2073.60;;;;;;5115722;28;20502;-75
2021/01/10 05:24:18;;;;;;;64.05;44.05;;;102.60;2073.60;;;;;;5115743;28;20047;-75
2021/01/10 05:26:44;;;;;;;69.30;47.63;;;102.60;2073.60;;;;;;5115947;28;20094;-75
2021/01/10 05:29:11;;;;;;;63.55;45.03;;;102.60;2099.20;;;;;;5114412;28;20097;-80
2021/01/10 05:31:42;;;;;;;67.68;48.13;;;102.50;2099.20;;;;;;5115468;28;20019;-74
2021/01/10 05:34:09;;;;;;;66.75;46.50;;;102.60;2099.20;;;;;;5115529;28;20046;-76
2021/01/10 05:36:36;;;;;;;61.67;43.80;;;102.50;2099.20;;;;;;5115380;28;20020;-77
2021/01/10 05:39:22;;;;;;;49.85;37.22;;;102.50;2099.20;;;;;;5115321;28;20049;-76
2021/01/10 05:41:52;;;;;;;61.10;41.97;;;102.60;2099.20;;;;;;5115531;28;20019;-77
2021/01/10 05:44:18;;;;;;;58.67;40.72;;;102.60;2099.20;;;;;;5115555;28;20035;-76
2021/01/10 05:46:44;;;;;;;56.88;39.13;;;102.60;2099.20;;;;;;5115085;28;20128;-76
2021/01/10 05:49:21;;;;;;;59.35;42.53;;;102.60;2073.60;;;;;;5115308;28;20027;-76
2021/01/10 05:51:48;;;;;;;67.60;48.03;;;102.60;2073.60;;;;;;5115003;28;20094;-77
2021/01/10 05:54:32;;;;;;;66.95;43.65;;;102.60;2073.60;;;;;;5115138;28;20070;-77
2021/01/10 05:56:58;;;;;;;63.38;43.25;;;102.60;2073.60;;;;;;5115017;28;20023;-76
2021/01/10 05:59:24;;;;;;;60.20;42.38;;;102.50;2073.60;;;;;;5114952;28;20116;-75
2021/01/10 06:01:54;;;;;;;52.72;37.97;;;102.50;2048.00;;;;;;5114958;28;20051;-75
2021/01/10 06:04:23;;;;;;;62.53;39.20;;;102.50;2073.60;;;;;;5114717;28;20098;-76
2021/01/10 06:06:48;;;;;;;60.38;40.95;;;102.50;2099.20;;;;;;5114794;28;20024;-75
2021/01/10 06:09:14;;;;;;;98.53;65.25;;;102.50;2073.60;;;;;;5114971;28;20115;-75
2021/01/10 06:11:41;;;;;;;79.65;53.10;;;102.50;2099.20;;;;;;5117877;27;20568;-77
2021/01/10 06:14:07;;;;;;;73.38;50.90;;;102.50;2099.20;;;;;;5135210;27;20383;-75
2021/01/10 06:16:35;;;;;;;70.13;47.92;;;102.40;2073.60;;;;;;5135606;27;20050;-74
2021/01/10 06:19:02;;;;;;;71.13;46.95;;;102.40;2073.60;;;;;;5135109;27;20023;-75
2021/01/10 06:21:30;;;;;;;64.60;42.83;;;102.40;2073.60;;;;;;5135118;27;20022;-75
2021/01/10 06:24:04;;;;;;;61.88;41.72;;;102.40;2073.60;;;;;;5135223;27;20031;-75
2021/01/10 06:26:32;;;;;;;68.63;46.85;;;102.40;2099.20;;;;;;5135141;27;20501;-75
2021/01/10 06:29:06;;;;;;;64.45;45.90;;;102.40;2099.20;;;;;;5134925;27;20046;-75
2021/01/10 06:31:34;;;;;;;68.40;49.10;;;102.40;2099.20;;;;;;5134958;27;20019;-75
2021/01/10 06:34:01;;;;;;;59.97;42.13;;;102.40;2099.20;;;;;;5134947;27;20031;-74
2021/01/10 06:36:29;;;;;;;65.38;45.35;;;102.50;2099.20;;;;;;5135092;27;20026;-74
2021/01/10 06:39:05;;;;;;;81.85;52.97;;;102.50;2099.20;;;;;;5134958;27;20023;-85
2021/01/10 06:41:52;;;;;;;81.18;52.92;;;102.50;2099.20;;;;;;5134437;27;20114;-75
2021/01/10 06:44:20;;;;;;;87.00;58.75;;;102.50;2099.20;;;;;;5134777;27;20560;-75
2021/01/10 06:46:54;;;;;;;85.85;58.80;;;102.50;2099.20;;;;;;5135097;27;20032;-74
2021/01/10 06:49:21;;;;;;;71.78;52.65;;;102.50;2099.20;;;;;;5134819;27;20027;-77
2021/01/10 06:51:49;;;;;;;76.65;53.10;;;102.50;2099.20;;;;;;5133061;27;20088;-76
2021/01/10 06:54:15;;;;;;;71.43;49.35;;;102.50;2099.20;;;;;;5134651;27;20074;-76
2021/01/10 06:56:48;;;;;;;79.93;55.88;;;102.60;2099.20;;;;;;5134378;27;20055;-75
2021/01/10 06:59:29;;;;;;;112.15;72.50;;;102.60;2099.20;;;;;;5134595;27;20050;-77
2021/01/10 07:01:56;;;;;;;84.72;55.53;;;102.60;2073.60;;;;;;5134617;27;20027;-76
2021/01/10 07:04:25;;;;;;;83.88;55.95;;;102.60;2073.60;;;;;;5134423;27;20023;-81
2021/01/10 07:06:52;;;;;;;83.18;56.80;;;102.60;2073.60;;;;;;5134345;27;20023;-77
2021/01/10 07:09:20;;;;;;;83.47;57.95;;;102.60;2048.00;;;;;;5134100;27;20016;-77
2021/01/10 07:11:46;;;;;;;74.97;49.50;;;102.60;2073.60;;;;;;5134479;27;20084;-76
2021/01/10 07:14:12;;;;;;;69.68;49.15;;;102.70;2073.60;;;;;;5112586;27;20055;-81
2021/01/10 07:16:39;;;;;;;89.82;68.05;;;102.70;2073.60;;;;;;5123375;27;20059;-76
2021/01/10 07:19:07;;;;;;;86.25;59.30;;;102.70;2048.00;;;;;;5119234;28;20020;-76
2021/01/10 07:21:41;;;;;;;78.35;54.22;;;102.70;2048.00;;;;;;5123057;28;20015;-74
2021/01/10 07:24:16;;;;;;;82.25;56.13;;;102.70;2048.00;;;;;;5115238;28;20065;-74
2021/01/10 07:26:45;;;;;;;82.63;57.33;;;102.70;2022.40;;;;;;5121441;28;20381;-76
2021/01/10 07:29:34;;;;;;;91.10;62.45;;;102.60;2022.40;;;;;;5119849;28;20038;-75
2021/01/10 07:32:02;;;;;;;91.80;62.20;;;102.60;2022.40;;;;;;5131932;28;20053;-77
2021/01/10 07:34:29;;;;;;;90.65;64.47;;;102.60;2048.00;;;;;;5133895;28;20035;-77
2021/01/10 07:36:59;;;;;;;94.63;65.85;;;102.70;2048.00;;;;;;5134055;28;20035;-75
2021/01/10 07:39:27;;;;;;;98.30;68.45;;;102.60;2048.00;;;;;;5134011;28;20031;-75
2021/01/10 07:42:14;;;;;;;94.97;66.70;;;102.50;2048.00;;;;;;5134074;28;20028;-77
2021/01/10 07:44:46;;;;;;;95.53;65.82;;;102.40;2048.00;;;;;;5114668;28;20024;-78
2021/01/10 07:47:12;;;;;;;125.57;87.20;;;77.70;2073.60;;;;;;5113388;28;20491;-76
2021/01/10 07:49:58;;;;;;;106.53;75.32;;;77.70;2073.60;;;;;;5113407;28;20035;-76
2021/01/10 07:52:41;;;;;;;102.45;70.22;;;77.70;2073.60;;;;;;5115152;27;20548;-76
2021/01/10 07:55:28;;;;;;;95.50;65.18;;;77.70;2073.60;;;;;;5097160;28;20036;-77
2021/01/10 07:58:10;;;;;;;88.03;64.28;;;102.40;2073.60;;;;;;5034627;28;20029;-75
2021/01/10 08:00:49;;;;;;;84.68;57.55;;;102.40;2048.00;;;;;;5038549;28;20037;-77
2021/01/10 08:03:23;;;;;;;105.57;72.03;;;102.40;2048.00;;;;;;5054488;28;20040;-76
2021/01/10 08:05:56;;;;;;;100.05;67.80;;;102.40;2073.60;;;;;;5054222;28;20033;-77
2021/01/10 08:08:39;;;;;;;117.53;81.55;;;102.50;2073.60;;;;;;5054323;28;20044;-74
2021/01/10 08:11:05;;;;;;;117.35;77.55;;;102.50;2073.60;;;;;;5054346;28;20493;-78
2021/01/10 08:13:44;;;;;;;127.13;88.88;;;102.40;2073.60;;;;;;5054298;28;20029;-77
2021/01/10 08:16:30;;;;;;;141.48;97.25;;;102.50;2073.60;;;;;;5054335;28;20039;-75
2021/01/10 08:19:00;;;;;;;123.25;84.65;;;102.40;2073.60;;;;;;5053656;28;20112;-74
2021/01/10 08:21:26;;;;;;;132.73;90.57;;;102.50;2073.60;;;;;;5071294;28;20043;-78
2021/01/10 08:23:56;;;;;;;91.35;61.85;;;102.50;2073.60;;;;;;5057291;28;20029;-76
2021/01/10 08:26:21;;;;;;;168.63;118.43;;;102.50;2022.40;;;;;;5053852;28;20025;-77
2021/01/10 08:28:55;;;;;;;272.67;192.43;;;102.50;2048.00;;;;;;5053814;28;20035;-79
2021/01/10 08:31:23;;;;;;;303.98;141.55;;;102.50;2048.00;;;;;;5053944;28;20036;-78
2021/01/10 08:33:58;;;;;;;163.07;106.40;;;102.50;2048.00;;;;;;5055073;28;20520;-75
2021/01/10 08:36:24;;;;;;;215.23;149.45;;;102.40;2073.60;;;;;;5116604;28;20030;-76
2021/01/10 08:38:59;;;;;;;714.33;384.40;;;102.40;2073.60;;;;;;5120275;27;20026;-79
2021/01/10 08:41:27;;;;;;;178.85;106.88;;;102.40;2073.60;;;;;;5122114;27;20124;-75
2021/01/10 08:43:56;;;;;;;222.75;122.00;;;102.40;2073.60;;;;;;5123159;27;20019;-75
2021/01/10 08:46:24;;;;;;;123.80;82.15;;;102.40;2073.60;;;;;;5123555;27;20026;-75
2021/01/10 08:48:49;;;;;;;124.10;81.88;;;77.70;2073.60;;;;;;5123183;27;20018;-75
2021/01/10 08:51:31;;;;;;;111.78;75.10;;;77.70;2048.00;;;;;;5130572;27;20024;-74
2021/01/10 08:53:57;;;;;;;153.75;100.03;;;77.70;2073.60;;;;;;5121320;27;20093;-76
2021/01/10 08:56:23;;;;;;;129.10;89.78;;;77.60;2073.60;;;;;;5136787;27;20046;-76
2021/01/10 08:58:56;;;;;;;131.85;87.22;;;77.60;2099.20;;;;;;5137379;27;20075;-74
2021/01/10 09:01:24;;;;;;;147.32;98.75;;;77.60;2073.60;;;;;;5132767;27;20478;-76
2021/01/10 09:03:56;;;;;;;135.45;92.18;;;77.60;2073.60;;;;;;5126419;27;20027;-74
2021/01/10 09:06:48;;;;;;;131.50;88.57;;;77.60;2073.60;;;;;;5123446;27;20011;-74
2021/01/10 09:09:31;;;;;;;105.60;71.07;;;77.70;2073.60;;;;;;5116039;28;20096;-74
2021/01/10 09:12:09;;;;;;;102.70;72.28;;;102.40;2073.60;;;;;;5126013;27;20065;-77
2021/01/10 09:14:40;;;;;;;110.75;75.60;;;102.50;2048.00;;;;;;5116733;27;20027;-79
2021/01/10 09:17:07;;;;;;;114.55;79.60;;;102.50;2048.00;;;;;;5115914;28;20019;-78
2021/01/10 09:19:35;;;;;;;115.63;82.65;;;102.50;2022.40;;;;;;5115949;28;20054;-76
2021/01/10 09:22:02;;;;;;;120.80;80.18;;;102.60;2022.40;;;;;;5115715;28;20076;-76
2021/01/10 09:24:32;;;;;;;126.18;86.00;;;102.60;2022.40;;;;;;5116027;28;20455;-76
2021/01/10 09:27:09;;;;;;;124.65;82.00;;;102.60;2022.40;;;;;;5115895;28;20073;-76
2021/01/10 09:29:34;;;;;;;136.20;93.70;;;102.70;2048.00;;;;;;5115365;28;20043;-76
2021/01/10 09:32:01;;;;;;;134.10;90.80;;;102.70;2022.40;;;;;;5115429;28;20020;-75
2021/01/10 09:34:27;;;;;;;125.13;84.82;;;102.70;2022.40;;;;;;5115539;28;20027;-76
2021/01/10 09:37:08;;;;;;;117.07;79.00;;;102.80;2022.40;;;;;;5115409;28;20061;-75
2021/01/10 09:39:38;;;;;;;131.20;87.35;;;102.80;2022.40;;;;;;5097012;28;20392;-75
2021/01/10 09:42:04;;;;;;;139.18;94.68;;;102.80;2022.40;;;;;;5115439;28;20055;-75
2021/01/10 09:44:32;;;;;;;142.23;95.15;;;102.80;2048.00;;;;;;5115207;28;20087;-75
2021/01/10 09:46:58;;;;;;;136.77;90.60;;;102.80;1996.80;;;;;;5115786;28;20372;-75
2021/01/10 09:49:34;;;;;;;132.32;88.40;;;102.90;1996.80;;;;;;5115227;28;20478;-77
2021/01/10 09:52:10;;;;;;;145.23;97.18;;;102.90;2022.40;;;;;;5115015;28;20456;-75
2021/01/10 09:54:36;;;;;;;135.93;90.75;;;102.90;2022.40;;;;;;5115052;28;20540;-76
2021/01/10 09:57:11;;;;;;;125.20;83.85;;;102.90;2022.40;;;;;;5115099;28;20102;-77
2021/01/10 09:59:43;;;;;;;134.85;91.07;;;102.90;2022.40;;;;;;5114834;28;20023;-76
2021/01/10 10:02:18;;;;;;;139.00;90.20;;;102.90;2022.40;;;;;;5114973;28;20031;-76
2021/01/10 10:04:46;;;;;;;140.75;92.32;;;102.80;2022.40;;;;;;5114995;28;20031;-75
2021/01/10 10:07:29;;;;;;;139.82;96.15;;;102.80;2022.40;;;;;;5114817;28;20023;-75
2021/01/10 10:09:55;;;;;;;140.90;91.72;;;102.80;2022.40;;;;;;5099012;28;20015;-74
2021/01/10 10:12:23;;;;;;;137.07;91.43;;;102.80;2022.40;;;;;;5114710;28;20027;-75
2021/01/10 10:14:53;;;;;;;131.75;89.78;;;102.80;2022.40;;;;;;5114100;28;20380;-75
2021/01/10 10:17:21;;;;;;;105.80;70.88;;;102.80;2022.40;;;;;;5114748;28;20050;-75
2021/01/10 10:19:47;;;;;;;112.03;72.43;;;102.90;2022.40;;;;;;5114897;28;20024;-76
2021/01/10 10:22:19;;;;;;;116.35;75.82;;;102.80;2022.40;;;;;;5114609;28;20023;-75
2021/01/10 10:24:45;;;;;;;116.10;75.57;;;102.90;2022.40;;;;;;5114640;28;20114;-75
2021/01/10 10:27:11;;;;;;;112.18;76.65;;;102.90;2022.40;;;;;;5114445;28;20103;-76
2021/01/10 10:29:36;;;;;;;108.70;73.70;;;102.90;2022.40;;;;;;5114293;28;20040;-76
2021/01/10 10:32:03;;;;;;;103.20;68.15;;;102.90;2022.40;;;;;;5114549;28;20426;-76
2021/01/10 10:34:29;;;;;;;126.88;83.60;;;103.00;1996.80;;;;;;5114525;28;20034;-75
2021/01/10 10:36:58;;;;;;;210.95;116.30;;;103.00;1996.80;;;;;;5114315;28;20434;-76
2021/01/10 10:39:23;;;;;;;164.27;100.43;;;103.00;2022.40;;;;;;5096048;28;20035;-76
2021/01/10 10:41:49;;;;;;;122.65;82.03;;;103.00;1996.80;;;;;;5114209;28;20023;-76
2021/01/10 10:44:15;;;;;;;136.57;89.80;;;103.00;1996.80;;;;;;5114308;28;20031;-76
2021/01/10 10:46:41;;;;;;;138.57;94.75;;;103.00;2022.40;;;;;;5105792;28;20023;-76
2021/01/10 10:49:07;;;;;;;181.73;121.20;;;103.00;1971.20;;;;;;5114095;28;20533;-77
2021/01/10 10:51:32;;;;;;;171.10;112.50;;;102.90;1996.80;;;;;;5113756;28;20031;-77
2021/01/10 10:53:58;;;;;;;135.48;88.30;;;102.80;2022.40;;;;;;5113591;28;20035;-82
2021/01/10 10:56:36;;;;;;;158.82;99.75;;;102.80;2022.40;;;;;;5114211;28;20076;-75
2021/01/10 10:59:03;;;;;;;146.70;96.70;;;102.80;2022.40;;;;;;5096208;28;20020;-76
2021/01/10 11:01:47;;;;;;;132.88;89.68;;;102.70;1996.80;;;;;;5096746;27;20026;-76
2021/01/10 11:04:13;;;;;;;123.30;84.45;;;102.70;1996.80;;;;;;5116015;27;20400;-78
2021/01/10 11:06:39;;;;;;;137.50;92.78;;;102.70;1996.80;;;;;;5134281;27;20023;-78
2021/01/10 11:09:07;;;;;;;165.95;114.20;;;102.70;1996.80;;;;;;5134268;27;20024;-86
2021/01/10 11:11:34;;;;;;;176.40;115.70;;;102.80;2022.40;;;;;;5134409;27;20015;-78
2021/01/10 11:14:00;;;;;;;196.68;129.50;;;102.80;2022.40;;;;;;5115258;28;20409;-78
2021/01/10 11:16:30;;;;;;;199.30;129.23;;;102.80;1996.80;;;;;;5134417;27;20026;-77
2021/01/10 11:18:56;;;;;;;198.25;129.00;;;102.80;2022.40;;;;;;5134335;27;20103;-76
2021/01/10 11:21:27;;;;;;;184.10;118.63;;;102.80;1996.80;;;;;;5134286;28;20059;-86
2021/01/10 11:23:53;;;;;;;210.32;140.25;;;102.90;2022.40;;;;;;5134077;28;20536;-77
2021/01/10 11:26:19;;;;;;;328.00;231.80;;;102.90;2022.40;;;;;;5135646;27;20027;-75
2021/01/10 11:28:45;;;;;;;227.23;144.05;;;102.90;2022.40;;;;;;5138738;27;20026;-79
2021/01/10 11:31:10;;;;;;;215.75;147.23;;;102.80;1996.80;;;;;;5138271;27;20068;-76
2021/01/10 11:33:36;;;;;;;195.77;132.02;;;102.80;2022.40;;;;;;5138332;27;20042;-76
2021/01/10 11:36:05;;;;;;;192.15;127.57;;;102.70;2022.40;;;;;;5138329;27;20068;-75
2021/01/10 11:38:31;;;;;;;197.43;128.95;;;102.80;2022.40;;;;;;5138267;27;20066;-74
2021/01/10 11:40:57;;;;;;;193.93;128.00;;;102.80;2022.40;;;;;;5120386;27;20441;-75
2021/01/10 11:43:22;;;;;;;189.90;125.07;;;102.90;1996.80;;;;;;5138344;27;20105;-74
2021/01/10 11:45:48;;;;;;;191.25;123.35;;;102.90;1996.80;;;;;;5138234;27;20023;-75
2021/01/10 11:48:14;;;;;;;182.20;117.93;;;103.00;2022.40;;;;;;5138220;27;20391;-74
2021/01/10 11:50:40;;;;;;;133.75;90.75;;;103.00;1996.80;;;;;;5137870;27;20030;-74
2021/01/10 11:53:05;;;;;;;157.60;105.55;;;103.00;1971.20;;;;;;5138041;27;20023;-74
2021/01/10 11:55:34;;;;;;;166.50;112.32;;;103.10;1971.20;;;;;;5138097;27;20026;-74
2021/01/10 11:58:00;;;;;;;153.90;102.35;;;103.10;1996.80;;;;;;5138109;27;20437;-75
2021/01/10 12:00:26;;;;;;;163.40;108.35;;;103.10;1996.80;;;;;;5137919;27;20019;-75
2021/01/10 12:02:52;;;;;;;185.65;122.60;;;103.10;1971.20;;;;;;5137060;27;20072;-75